Orinda, CA

4:07 AM PST on December 29, 2014 (GMT -0800)
Happy Valley / St Stephens Dr | Change Station
CLOSE
Current Station
Personal Weather Station
Location: Lafayette, CA
Elevation: 659 ft
Nearby Weather Stations
Active Advisory: Wind Advisory

Elev 659 ft 37.89 °N, 122.16 °W | Updated 2 minutes ago

Overcast
Overcast
44.5 °F
Feels Like 44 °F
N
0.0
Wind Variable Wind from West
Gusts 0.0 mph

Today
High -- | Low -- °F
--% Chance of Precip.
Yesterday
High -- | Low -- °F
Precip. -- in
7:23 AM 4:57 PM
First Quarter, 58% visible
Pressure 30.24 in
Visibility 7.0 miles
Clouds Scattered Clouds 500 ft
Overcast 1800 ft
Windchill 44 °F
Dew Point 44 °F
Humidity 98%
Rainfall 0.00 in
Snow Depth Not available.
UV 0 out of 12
Pollen 5.30 out of 12
Air Quality Not available.
Flu Activity Not available.
SPECI KCCR 291128Z 00000KT 7SM SCT005 OVC018 07/06 A3024 RMK AO2 T00720056 $

More Conditions Fewer Conditions

Pressure 30.24 in
Visibility 7.0 miles
Clouds Scattered Clouds 500 ft
Overcast 1800 ft
Windchill 44 °F
Dew Point 44 °F
Humidity 98%
Rainfall 0.00 in
Snow Depth Not available.
UV 0 out of 12
Pollen 5.30 out of 12
Air Quality Not available.
Flu Activity Not available.
SPECI KCCR 291128Z 00000KT 7SM SCT005 OVC018 07/06 A3024 RMK AO2 T00720056 $

More Conditions Fewer Conditions

10-Day Weather Forecast

Almanac

Astronomy

Dec. 29, 2014 Rise Set
Actual Time
Civil Twilight
Nautical Twilight
Astronomical Twilight
Moon
Length of Visible Light
Length of Day
Tomorrow will be .
, % of the Moon is Illuminated

Today's Extremes

State Highs State Lows

Community

WunderPhotos

Upload Photos

1,781,573 photos uploaded!

WunderBlogs® & News

Nearby

Air Quality

  Air Quality AQ Index Pollutant
Not available.

Snow Depth

Station Depth Elevation

Earthquake Activity

City Distance Mag. Time & Date
Minimum magnitude displayed is 2.5.

Coastal Water Temperatures

Place Temperature

Nearby Weather Stations